createdAt,value
2018-12-01T00:00:56.690Z,25.87
2018-12-01T00:03:38.507Z,28.70
2018-12-01T00:06:30.916Z,23.10
2018-12-01T00:09:13.452Z,24.23
2018-12-01T00:11:56.082Z,22.60
2018-12-01T00:14:38.787Z,30.37
2018-12-01T00:17:22.277Z,20.63
2018-12-01T00:20:10.500Z,24.53
2018-12-01T00:22:52.500Z,18.17
2018-12-01T00:25:34.661Z,19.57
2018-12-01T00:28:18.466Z,24.13
2018-12-01T00:31:00.727Z,23.77
2018-12-01T00:33:44.297Z,26.57
2018-12-01T00:36:26.863Z,28.00
2018-12-01T00:39:10.202Z,24.20
2018-12-01T00:41:52.646Z,27.40
2018-12-01T00:44:34.780Z,27.53
2018-12-01T00:47:16.988Z,24.93
2018-12-01T00:49:59.163Z,22.93
2018-12-01T00:52:41.652Z,25.90
2018-12-01T00:55:24.276Z,18.83
2018-12-01T00:58:06.503Z,27.43
2018-12-01T01:00:48.878Z,26.10
2018-12-01T01:03:30.671Z,20.97
2018-12-01T01:06:13.344Z,27.87
2018-12-01T01:08:55.785Z,30.53
2018-12-01T01:11:37.572Z,23.73
2018-12-01T01:14:19.821Z,26.23
2018-12-01T01:17:02.382Z,23.33
2018-12-01T01:19:46.092Z,26.43
2018-12-01T01:22:28.475Z,27.70
2018-12-01T01:25:11.631Z,20.93
2018-12-01T01:27:55.827Z,22.70
2018-12-01T01:30:38.198Z,19.00
2018-12-01T01:33:30.451Z,17.97
2018-12-01T01:36:12.639Z,22.57
2018-12-01T01:38:54.931Z,20.20
2018-12-01T01:41:38.835Z,19.80
2018-12-01T01:44:21.034Z,23.80
2018-12-01T01:47:02.691Z,24.73
2018-12-01T01:49:49.236Z,22.77
2018-12-01T01:52:30.987Z,19.20
2018-12-01T01:55:12.831Z,18.70
2018-12-01T01:57:57.467Z,18.27
2018-12-01T02:00:40.867Z,22.87
2018-12-01T02:03:23.063Z,17.47
2018-12-01T02:06:05.058Z,22.60
2018-12-01T02:08:47.161Z,23.47
2018-12-01T02:11:29.696Z,27.00
2018-12-01T02:14:12.619Z,23.50
2018-12-01T02:16:55.121Z,15.17
2018-12-01T02:19:37.623Z,22.20
2018-12-01T02:22:20.624Z,18.47
2018-12-01T02:25:02.180Z,21.50
2018-12-01T02:27:44.201Z,18.13
2018-12-01T02:30:26.011Z,16.83
2018-12-01T02:33:08.631Z,22.70
2018-12-01T02:35:51.937Z,28.60
2018-12-01T02:38:33.524Z,19.57
2018-12-01T02:41:16.976Z,19.83
2018-12-01T02:44:10.224Z,23.50
2018-12-01T02:47:02.576Z,16.60
2018-12-01T02:49:44.548Z,21.47
2018-12-01T02:52:26.684Z,21.20
2018-12-01T02:55:10.843Z,19.33
2018-12-01T02:57:52.701Z,22.20
2018-12-01T03:00:35.104Z,18.70
2018-12-01T03:03:17.539Z,20.23
2018-12-01T03:06:00.619Z,22.23
2018-12-01T03:08:43.981Z,22.53
2018-12-01T03:11:26.110Z,20.77
2018-12-01T03:14:08.471Z,21.83
2018-12-01T03:16:51.048Z,21.10
2018-12-01T03:19:33.284Z,22.33
2018-12-01T03:22:15.142Z,23.17
2018-12-01T03:24:56.759Z,29.03
2018-12-01T03:27:39.951Z,21.03
2018-12-01T03:30:23.272Z,17.20
2018-12-01T03:33:05.335Z,29.90
2018-12-01T03:35:47.715Z,18.17
2018-12-01T03:38:30.602Z,28.63
2018-12-01T03:41:12.572Z,23.97
2018-12-01T03:43:55.090Z,24.07
2018-12-01T03:46:37.530Z,23.63
2018-12-01T03:49:19.919Z,24.77
2018-12-01T03:52:02.414Z,24.70
2018-12-01T03:54:45.245Z,21.30
2018-12-01T03:57:27.252Z,22.63
2018-12-01T04:00:09.844Z,24.73
2018-12-01T04:02:52.259Z,28.10
2018-12-01T04:05:34.072Z,23.47
2018-12-01T04:08:16.936Z,23.27
2018-12-01T04:10:59.375Z,24.43
2018-12-01T04:13:41.581Z,21.10
2018-12-01T04:16:25.257Z,30.63
2018-12-01T04:19:07.560Z,23.37
2018-12-01T04:21:49.296Z,22.73
2018-12-01T04:24:31.006Z,25.30
2018-12-01T04:27:14.480Z,21.10
2018-12-01T04:29:56.379Z,19.10
2018-12-01T04:32:38.652Z,19.00
2018-12-01T04:35:21.888Z,26.30
2018-12-01T04:38:04.464Z,22.67
2018-12-01T04:40:46.864Z,20.37
2018-12-01T04:43:29.275Z,24.57
2018-12-01T04:46:11.754Z,25.30
2018-12-01T04:48:54.217Z,20.43
2018-12-01T04:51:37.018Z,19.70
2018-12-01T04:54:19.545Z,24.90
2018-12-01T04:57:01.629Z,31.03
2018-12-01T04:59:44.374Z,17.77
2018-12-01T05:02:26.517Z,27.60
2018-12-01T05:05:10.332Z,21.70
2018-12-01T05:07:53.941Z,18.63
2018-12-01T05:10:36.109Z,22.27
2018-12-01T05:13:17.772Z,22.90
2018-12-01T05:16:00.595Z,23.10
2018-12-01T05:18:43.126Z,29.57
2018-12-01T05:21:25.271Z,26.10
2018-12-01T05:24:07.887Z,19.43
2018-12-01T05:26:50.384Z,20.27
2018-12-01T05:29:32.036Z,17.20
2018-12-01T05:32:18.171Z,19.57
2018-12-01T05:34:59.940Z,25.77
2018-12-01T05:37:43.854Z,19.20
2018-12-01T05:40:26.017Z,23.77
2018-12-01T05:43:08.475Z,22.57
2018-12-01T05:45:51.686Z,19.63
2018-12-01T05:48:34.067Z,15.30
2018-12-01T05:51:16.648Z,16.73
2018-12-01T05:53:59.138Z,21.87
2018-12-01T05:56:42.225Z,17.63
2018-12-01T05:59:24.075Z,17.03
2018-12-01T06:02:06.912Z,21.80
2018-12-01T06:04:49.928Z,21.80
2018-12-01T06:07:31.502Z,19.90
2018-12-01T06:10:16.929Z,13.77
2018-12-01T06:13:01.849Z,17.67
2018-12-01T06:15:44.283Z,18.70
2018-12-01T06:18:26.806Z,11.43
2018-12-01T06:21:09.665Z,17.13
2018-12-01T06:23:51.711Z,14.87
2018-12-01T06:26:38.039Z,19.83
2018-12-01T06:29:19.903Z,16.20
2018-12-01T06:32:02.335Z,18.60
2018-12-01T06:38:29.264Z,21.50
2018-12-01T06:41:10.965Z,21.20
2018-12-01T06:43:52.427Z,15.60
2018-12-01T06:46:34.338Z,16.00
2018-12-01T06:49:16.189Z,18.63
2018-12-01T06:51:57.581Z,26.23
2018-12-01T06:54:39.591Z,16.70
2018-12-01T06:57:21.458Z,19.83
2018-12-01T07:00:02.902Z,13.53
2018-12-01T07:02:45.356Z,19.57
2018-12-01T07:05:26.929Z,19.07
2018-12-01T07:08:08.406Z,22.50
2018-12-01T07:10:50.370Z,18.80
2018-12-01T07:13:32.313Z,18.90
2018-12-01T07:16:13.805Z,13.17
2018-12-01T07:19:11.450Z,15.17
2018-12-01T07:21:52.820Z,14.60
2018-12-01T07:24:34.154Z,15.40
2018-12-01T07:27:16.195Z,20.07
2018-12-01T07:29:58.244Z,16.97
2018-12-01T07:32:39.641Z,13.90
2018-12-01T07:35:21.552Z,15.10
2018-12-01T07:38:03.542Z,22.13
2018-12-01T07:40:45.258Z,16.37
2018-12-01T07:43:27.198Z,19.20
2018-12-01T07:46:08.852Z,20.43
2018-12-01T07:48:50.676Z,17.27
2018-12-01T07:51:32.333Z,16.67
2018-12-01T07:54:14.257Z,18.10
2018-12-01T07:56:55.769Z,27.83
2018-12-01T07:59:37.873Z,20.97
2018-12-01T08:02:19.666Z,19.10
2018-12-01T08:05:01.226Z,16.87
2018-12-01T08:07:43.025Z,16.43
2018-12-01T08:10:24.134Z,14.77
2018-12-01T08:13:05.573Z,16.53
2018-12-01T08:15:47.520Z,16.03
2018-12-01T08:18:29.503Z,15.30
2018-12-01T08:21:10.797Z,16.97
2018-12-01T08:23:52.586Z,13.13
2018-12-01T08:26:33.780Z,17.17
2018-12-01T08:29:15.536Z,16.27
2018-12-01T08:31:58.231Z,17.87
2018-12-01T08:34:39.982Z,15.27
2018-12-01T08:37:21.361Z,15.13
2018-12-01T08:40:13.587Z,14.07
2018-12-01T08:42:55.501Z,13.70
2018-12-01T08:45:37.982Z,22.60
2018-12-01T08:48:21.049Z,17.17
2018-12-01T08:51:03.093Z,16.17
2018-12-01T08:53:44.595Z,16.93
2018-12-01T08:56:26.353Z,16.43
2018-12-01T08:59:07.418Z,13.37
2018-12-01T09:01:48.910Z,15.73
2018-12-01T09:04:33.910Z,12.93
2018-12-01T09:07:15.910Z,12.63
2018-12-01T09:09:57.329Z,17.13
2018-12-01T09:12:38.973Z,10.67
2018-12-01T09:15:20.142Z,18.13
2018-12-01T09:18:01.541Z,13.93
2018-12-01T09:20:43.281Z,13.90
2018-12-01T09:23:24.417Z,16.37
2018-12-01T09:26:06.053Z,18.93
2018-12-01T09:28:47.536Z,14.33
2018-12-01T09:31:29.690Z,10.13
2018-12-01T09:34:11.682Z,18.80
2018-12-01T09:36:52.966Z,10.87
2018-12-01T09:39:34.303Z,16.03
2018-12-01T09:42:16.266Z,17.70
2018-12-01T09:44:57.422Z,11.30
2018-12-01T09:47:38.936Z,15.80
2018-12-01T09:50:20.827Z,12.60
2018-12-01T09:53:02.998Z,14.83
2018-12-01T09:55:44.311Z,12.33
2018-12-01T09:58:26.526Z,10.10
2018-12-01T10:01:08.143Z,10.23
2018-12-01T10:03:49.756Z,11.70
2018-12-01T10:06:31.694Z,11.17
2018-12-01T10:09:13.875Z,13.97
2018-12-01T10:11:55.093Z,12.03
2018-12-01T10:14:36.750Z,10.30
2018-12-01T10:17:17.910Z,12.60
2018-12-01T10:19:59.294Z,7.83
2018-12-01T10:22:41.099Z,9.83
2018-12-01T10:25:22.431Z,10.70
2018-12-01T10:28:03.738Z,9.10
2018-12-01T10:30:45.438Z,11.90
2018-12-01T10:33:26.478Z,10.73
2018-12-01T10:36:07.995Z,10.40
2018-12-01T10:38:49.771Z,8.70
2018-12-01T10:41:31.076Z,6.77
2018-12-01T10:44:12.347Z,10.30
2018-12-01T10:46:54.423Z,6.13
2018-12-01T10:49:36.175Z,10.97
2018-12-01T10:52:17.582Z,11.20
2018-12-01T10:55:00.378Z,9.37
2018-12-01T10:57:41.602Z,9.70
2018-12-01T11:00:28.213Z,9.57
2018-12-01T11:03:16.693Z,10.17
2018-12-01T11:06:00.049Z,9.77
2018-12-01T11:08:41.675Z,9.87
2018-12-01T11:11:23.766Z,10.77
2018-12-01T11:14:05.360Z,14.20
2018-12-01T11:16:46.959Z,9.70
2018-12-01T11:19:28.103Z,10.37
2018-12-01T11:22:09.467Z,8.80
2018-12-01T11:24:51.122Z,13.23
2018-12-01T11:27:32.566Z,10.17
2018-12-01T11:30:16.795Z,11.23
2018-12-01T11:32:58.492Z,8.27
2018-12-01T11:35:40.208Z,6.73
2018-12-01T11:38:21.517Z,10.07
2018-12-01T11:41:02.893Z,7.93
2018-12-01T11:43:44.285Z,10.63
2018-12-01T11:46:26.250Z,7.20
2018-12-01T11:49:09.550Z,8.87
2018-12-01T11:51:49.906Z,7.30
2018-12-01T11:54:31.515Z,11.33
2018-12-01T11:57:12.670Z,7.00
2018-12-01T11:59:54.982Z,9.43
2018-12-01T12:02:38.005Z,9.10
2018-12-01T12:05:20.111Z,9.50
2018-12-01T12:08:13.786Z,10.27
2018-12-01T12:10:55.250Z,11.90
2018-12-01T12:13:36.718Z,7.83
2018-12-01T12:16:18.798Z,8.10
2018-12-01T12:19:01.461Z,9.43
2018-12-01T12:21:43.698Z,12.13
2018-12-01T12:24:26.324Z,11.53
2018-12-01T12:27:08.869Z,9.63
2018-12-01T12:29:50.425Z,10.77
2018-12-01T12:32:32.302Z,11.17
2018-12-01T12:35:14.546Z,9.00
2018-12-01T12:37:55.724Z,7.17
2018-12-01T12:40:39.846Z,8.83
2018-12-01T12:43:21.816Z,8.27
2018-12-01T12:46:03.312Z,6.17
2018-12-01T12:48:44.872Z,6.53
2018-12-01T12:51:26.742Z,6.90
2018-12-01T12:54:08.984Z,6.33
2018-12-01T12:56:50.157Z,6.60
2018-12-01T12:59:31.579Z,8.47
2018-12-01T13:02:13.360Z,8.87
2018-12-01T13:04:54.503Z,7.53
2018-12-01T13:07:36.139Z,5.80
2018-12-01T13:10:19.485Z,5.37
2018-12-01T13:13:00.966Z,4.17
2018-12-01T13:15:42.393Z,4.67
2018-12-01T13:18:24.185Z,7.13
2018-12-01T13:21:05.421Z,5.37
2018-12-01T13:23:46.687Z,7.47
2018-12-01T13:26:28.826Z,8.00
2018-12-01T13:29:11.112Z,4.80
2018-12-01T13:31:54.525Z,5.13
2018-12-01T13:34:34.924Z,4.33
2018-12-01T13:37:18.221Z,6.13
2018-12-01T13:39:58.153Z,5.23
2018-12-01T13:42:41.034Z,7.63
2018-12-01T13:45:23.054Z,5.77
2018-12-01T13:48:04.639Z,4.07
2018-12-01T13:50:46.597Z,3.90
2018-12-01T13:53:28.804Z,4.47
2018-12-01T13:56:09.973Z,7.50
2018-12-01T13:58:52.154Z,6.47
2018-12-01T14:01:34.139Z,3.40
2018-12-01T14:04:15.483Z,3.90
2018-12-01T14:06:57.347Z,5.23
2018-12-01T14:09:39.492Z,6.00
2018-12-01T14:12:20.950Z,4.50
2018-12-01T14:15:02.770Z,7.03
2018-12-01T14:17:44.786Z,6.23
2018-12-01T14:20:26.182Z,5.93
2018-12-01T14:23:07.949Z,5.57
2018-12-01T14:25:49.065Z,6.97
2018-12-01T14:28:30.573Z,7.10
2018-12-01T14:31:12.406Z,8.90
2018-12-01T14:33:54.364Z,6.73
2018-12-01T14:36:37.234Z,3.60
2018-12-01T14:39:19.203Z,6.27
2018-12-01T14:42:00.785Z,6.70
2018-12-01T14:44:42.608Z,6.00
2018-12-01T14:47:23.782Z,6.83
2018-12-01T14:50:07.849Z,5.27
2018-12-01T14:52:49.733Z,5.53
2018-12-01T14:55:31.606Z,7.37
2018-12-01T14:58:13.124Z,8.20
2018-12-01T15:00:55.133Z,7.70
2018-12-01T15:03:36.921Z,7.53
2018-12-01T15:06:18.750Z,6.63
2018-12-01T15:09:00.675Z,4.63
2018-12-01T15:11:42.238Z,7.90
2018-12-01T15:14:24.069Z,4.57
2018-12-01T15:17:05.577Z,8.43
2018-12-01T15:19:47.509Z,7.47
2018-12-01T15:22:30.035Z,5.07
2018-12-01T15:25:13.437Z,4.90
2018-12-01T15:27:54.849Z,6.37
2018-12-01T15:30:36.760Z,7.67
2018-12-01T15:33:18.707Z,7.13
2018-12-01T15:36:00.099Z,7.43
2018-12-01T15:38:42.185Z,9.03
2018-12-01T15:41:24.155Z,3.97
2018-12-01T15:44:06.391Z,9.37
2018-12-01T15:46:48.395Z,9.23
2018-12-01T15:49:30.474Z,5.40
2018-12-01T15:52:12.496Z,4.50
2018-12-01T15:54:55.434Z,4.13
2018-12-01T15:57:37.432Z,8.47
2018-12-01T16:00:27.246Z,5.97
2018-12-01T16:03:09.169Z,6.23
2018-12-01T16:05:50.910Z,7.00
2018-12-01T16:08:32.597Z,3.93
2018-12-01T16:11:22.446Z,7.97
2018-12-01T16:14:04.456Z,8.47
2018-12-01T16:16:46.806Z,7.67
2018-12-01T16:19:28.671Z,5.40
2018-12-01T16:22:10.529Z,5.47
2018-12-01T16:24:52.972Z,6.33
2018-12-01T16:27:34.937Z,7.03
2018-12-01T16:30:32.297Z,8.10
2018-12-01T16:33:15.634Z,6.27
2018-12-01T16:36:00.081Z,6.63
2018-12-01T16:38:45.030Z,8.97
2018-12-01T16:41:30.599Z,5.37
2018-12-01T16:44:12.608Z,8.50
2018-12-01T16:46:54.018Z,4.97
2018-12-01T16:49:35.605Z,8.87
2018-12-01T16:52:16.721Z,5.23
2018-12-01T16:54:58.468Z,5.83
2018-12-01T16:57:40.280Z,7.43
2018-12-01T17:00:22.047Z,5.77
2018-12-01T17:03:03.459Z,4.93
2018-12-01T17:05:52.081Z,5.33
2018-12-01T17:08:33.206Z,5.20
2018-12-01T17:11:14.709Z,3.20
2018-12-01T17:13:56.492Z,6.23
2018-12-01T17:16:38.298Z,8.23
2018-12-01T17:19:20.121Z,4.57
2018-12-01T17:22:01.918Z,3.97
2018-12-01T17:24:43.273Z,4.80
2018-12-01T17:27:25.017Z,5.50
2018-12-01T17:30:17.939Z,5.07
2018-12-01T17:33:00.072Z,6.43
2018-12-01T17:35:42.533Z,4.40
2018-12-01T17:38:24.517Z,7.60
2018-12-01T17:41:10.545Z,3.27
2018-12-01T17:43:55.161Z,5.20
2018-12-01T17:46:36.882Z,5.10
2018-12-01T17:49:18.705Z,3.97
2018-12-01T17:52:00.785Z,5.80
2018-12-01T17:54:42.162Z,4.37
2018-12-01T17:57:23.995Z,7.73
2018-12-01T18:00:13.638Z,7.63
2018-12-01T18:02:59.792Z,6.13
2018-12-01T18:05:45.631Z,7.20
2018-12-01T18:08:27.221Z,5.13
2018-12-01T18:11:09.769Z,4.87
2018-12-01T18:13:51.158Z,5.23
2018-12-01T18:16:32.717Z,5.17
2018-12-01T18:19:14.438Z,4.90
2018-12-01T18:21:56.412Z,5.27
2018-12-01T18:24:37.697Z,3.70
2018-12-01T18:27:19.549Z,3.20
2018-12-01T18:30:01.493Z,8.40
2018-12-01T18:32:43.218Z,7.10
2018-12-01T18:35:24.762Z,4.83
2018-12-01T18:38:06.902Z,6.10
2018-12-01T18:40:48.505Z,5.27
2018-12-01T18:43:30.325Z,5.10
2018-12-01T18:46:14.432Z,7.97
2018-12-01T18:48:55.714Z,7.27
2018-12-01T18:51:38.091Z,6.57
2018-12-01T18:54:22.500Z,5.97
2018-12-01T18:57:04.649Z,3.57
2018-12-01T18:59:46.912Z,8.33
2018-12-01T19:02:29.074Z,5.57
2018-12-01T19:05:10.492Z,4.60
2018-12-01T19:07:52.175Z,9.20
2018-12-01T19:10:34.197Z,4.67
2018-12-01T19:13:15.674Z,3.47
2018-12-01T19:15:57.595Z,3.63
2018-12-01T19:18:40.252Z,3.77
2018-12-01T19:21:22.121Z,6.20
2018-12-01T19:24:03.958Z,4.63
2018-12-01T19:26:45.816Z,4.20
2018-12-01T19:29:27.238Z,2.87
2018-12-01T19:32:08.970Z,6.40
2018-12-01T19:34:50.094Z,3.47
2018-12-01T19:37:31.873Z,5.10
2018-12-01T19:40:15.672Z,4.27
2018-12-01T19:42:57.997Z,3.43
2018-12-01T19:45:39.862Z,4.53
2018-12-01T19:48:21.633Z,4.00
2018-12-01T19:51:03.799Z,3.40
2018-12-01T19:53:45.065Z,2.93
2018-12-01T19:56:26.973Z,2.83
2018-12-01T19:59:08.874Z,4.37
2018-12-01T20:01:50.298Z,3.37
2018-12-01T20:04:32.282Z,3.40
2018-12-01T20:07:14.231Z,2.73
2018-12-01T20:09:55.731Z,1.80
2018-12-01T20:12:37.261Z,6.00
2018-12-01T20:15:36.438Z,3.07
2018-12-01T20:18:22.277Z,1.97
2018-12-01T20:21:03.617Z,5.17
2018-12-01T20:23:44.965Z,1.70
2018-12-01T20:26:26.820Z,2.27
2018-12-01T20:29:08.734Z,1.83
2018-12-01T20:31:50.322Z,3.97
2018-12-01T20:34:32.133Z,2.30
2018-12-01T20:37:16.977Z,3.73
2018-12-01T20:39:58.599Z,2.10
2018-12-01T20:42:40.887Z,1.40
2018-12-01T20:45:22.321Z,2.77
2018-12-01T20:48:03.713Z,2.87
2018-12-01T20:50:46.657Z,2.00
2018-12-01T20:53:28.557Z,1.50
2018-12-01T20:56:13.856Z,2.20
2018-12-01T20:58:55.417Z,2.17
2018-12-01T21:01:36.822Z,2.00
2018-12-01T21:04:18.873Z,2.30
2018-12-01T21:07:00.941Z,1.60
2018-12-01T21:09:42.983Z,4.43
2018-12-01T21:12:24.517Z,1.80
2018-12-01T21:15:08.901Z,3.00
2018-12-01T21:17:50.409Z,2.70
2018-12-01T21:20:31.830Z,2.37
2018-12-01T21:23:13.169Z,2.07
2018-12-01T21:25:54.478Z,3.77
2018-12-01T21:28:35.905Z,3.13
2018-12-01T21:31:17.238Z,2.37
2018-12-01T21:33:59.531Z,2.00
2018-12-01T21:36:41.187Z,3.70
2018-12-01T21:39:23.411Z,3.53
2018-12-01T21:42:04.899Z,2.37
2018-12-01T21:44:46.213Z,2.53
2018-12-01T21:47:27.523Z,1.93
2018-12-01T21:50:14.149Z,5.20
2018-12-01T21:52:55.810Z,2.43
2018-12-01T21:55:37.793Z,2.00
2018-12-01T21:58:19.735Z,2.63
2018-12-01T22:01:02.159Z,2.47
2018-12-01T22:03:44.226Z,4.63
2018-12-01T22:06:25.769Z,4.03
2018-12-01T22:09:08.361Z,1.73
2018-12-01T22:11:50.341Z,3.13
2018-12-01T22:14:32.339Z,3.77
2018-12-01T22:17:14.479Z,1.57
2018-12-01T22:19:55.597Z,4.30
2018-12-01T22:22:37.981Z,2.70
2018-12-01T22:25:19.613Z,2.90
2018-12-01T22:28:00.996Z,2.37
2018-12-01T22:30:44.283Z,2.03
2018-12-01T22:33:26.893Z,3.27
2018-12-01T22:36:08.498Z,3.43
2018-12-01T22:38:50.141Z,2.20
2018-12-01T22:41:32.213Z,1.80
2018-12-01T22:44:13.564Z,2.80
2018-12-01T22:46:55.446Z,2.27
2018-12-01T22:49:37.489Z,2.90
2018-12-01T22:52:18.870Z,3.40
2018-12-01T22:55:01.735Z,1.77
2018-12-01T22:57:45.910Z,1.60
2018-12-01T23:01:02.512Z,1.70
2018-12-01T23:03:43.846Z,2.30
2018-12-01T23:06:25.204Z,2.30
2018-12-01T23:09:07.418Z,1.90
2018-12-01T23:11:48.985Z,1.50
2018-12-01T23:14:30.210Z,1.83
2018-12-01T23:17:12.026Z,1.70
2018-12-01T23:19:53.984Z,3.03
2018-12-01T23:22:35.270Z,3.00
2018-12-01T23:25:17.062Z,1.83
2018-12-01T23:27:59.042Z,2.80
2018-12-01T23:30:42.740Z,1.33
2018-12-01T23:33:25.628Z,1.73
2018-12-01T23:36:07.358Z,1.57
2018-12-01T23:38:49.017Z,2.00
2018-12-01T23:41:30.368Z,1.63
2018-12-01T23:44:28.843Z,1.60
2018-12-01T23:47:11.330Z,1.93
2018-12-01T23:49:53.267Z,2.00
2018-12-01T23:52:36.955Z,2.00
2018-12-01T23:55:18.975Z,2.77
2018-12-01T23:58:00.317Z,3.07
